sensor_id;sensor_type;location;lat;lon;timestamp;pressure;altitude;pressure_sealevel;temperature;humidity
47054;BME280;32811;52.382;5.270;2022-09-13T00:00:52;101035.28;;;17.37;100.00
47054;BME280;32811;52.382;5.270;2022-09-13T00:03:19;101030.19;;;17.31;100.00
47054;BME280;32811;52.382;5.270;2022-09-13T00:05:47;101046.50;;;17.41;100.00
47054;BME280;32811;52.382;5.270;2022-09-13T00:08:14;101064.84;;;17.38;100.00
47054;BME280;32811;52.382;5.270;2022-09-13T00:10:42;101050.25;;;17.29;100.00
47054;BME280;32811;52.382;5.270;2022-09-13T00:13:10;101063.00;;;17.43;100.00
47054;BME280;32811;52.382;5.270;2022-09-13T00:15:42;101051.69;;;17.44;100.00
47054;BME280;32811;52.382;5.270;2022-09-13T00:18:09;101045.66;;;17.40;100.00
47054;BME280;32811;52.382;5.270;2022-09-13T00:20:36;101034.38;;;17.40;100.00
47054;BME280;32811;52.382;5.270;2022-09-13T00:23:03;101031.81;;;17.37;100.00
47054;BME280;32811;52.382;5.270;2022-09-13T00:25:29;101036.22;;;17.35;100.00
47054;BME280;32811;52.382;5.270;2022-09-13T00:27:56;101037.13;;;17.32;100.00
47054;BME280;32811;52.382;5.270;2022-09-13T00:30:22;101050.97;;;17.36;100.00
47054;BME280;32811;52.382;5.270;2022-09-13T00:32:48;101051.81;;;17.36;100.00
47054;BME280;32811;52.382;5.270;2022-09-13T00:35:15;101047.41;;;17.41;100.00
47054;BME280;32811;52.382;5.270;2022-09-13T00:37:41;101053.38;;;17.47;100.00
47054;BME280;32811;52.382;5.270;2022-09-13T00:40:09;101048.13;;;17.48;100.00
47054;BME280;32811;52.382;5.270;2022-09-13T00:42:36;101030.66;;;17.50;100.00
47054;BME280;32811;52.382;5.270;2022-09-13T00:50:21;101033.34;;;17.47;100.00
47054;BME280;32811;52.382;5.270;2022-09-13T00:52:54;101022.16;;;17.42;100.00
47054;BME280;32811;52.382;5.270;2022-09-13T00:57:56;101020.56;;;17.35;100.00
47054;BME280;32811;52.382;5.270;2022-09-13T01:00:25;101023.22;;;17.32;100.00
47054;BME280;32811;52.382;5.270;2022-09-13T01:02:58;101024.13;;;17.31;100.00
47054;BME280;32811;52.382;5.270;2022-09-13T01:05:33;101017.25;;;17.27;100.00
47054;BME280;32811;52.382;5.270;2022-09-13T01:08:02;101015.59;;;17.22;100.00
47054;BME280;32811;52.382;5.270;2022-09-13T01:10:45;101021.81;;;17.17;100.00
47054;BME280;32811;52.382;5.270;2022-09-13T01:13:18;101017.47;;;17.14;100.00
47054;BME280;32811;52.382;5.270;2022-09-13T01:15:45;101027.06;;;17.14;100.00
47054;BME280;32811;52.382;5.270;2022-09-13T01:18:11;101023.63;;;17.12;100.00
47054;BME280;32811;52.382;5.270;2022-09-13T01:21:17;101029.69;;;17.12;100.00
47054;BME280;32811;52.382;5.270;2022-09-13T01:24:15;101020.19;;;17.10;100.00
47054;BME280;32811;52.382;5.270;2022-09-13T01:30:11;101016.78;;;17.06;100.00
47054;BME280;32811;52.382;5.270;2022-09-13T01:52:07;101003.03;;;16.98;100.00
47054;BME280;32811;52.382;5.270;2022-09-13T02:00:07;101004.69;;;17.04;100.00
47054;BME280;32811;52.382;5.270;2022-09-13T02:02:47;101005.56;;;17.01;100.00
47054;BME280;32811;52.382;5.270;2022-09-13T02:05:40;101004.69;;;17.04;100.00
47054;BME280;32811;52.382;5.270;2022-09-13T02:08:15;101002.84;;;17.09;100.00
47054;BME280;32811;52.382;5.270;2022-09-13T02:10:48;101001.09;;;17.08;100.00
47054;BME280;32811;52.382;5.270;2022-09-13T02:13:20;100993.34;;;17.05;100.00
47054;BME280;32811;52.382;5.270;2022-09-13T02:15:54;101006.19;;;17.15;100.00
47054;BME280;32811;52.382;5.270;2022-09-13T02:18:28;100986.13;;;17.17;100.00
47054;BME280;32811;52.382;5.270;2022-09-13T02:21:00;100987.78;;;17.21;100.00
47054;BME280;32811;52.382;5.270;2022-09-13T02:23:33;101001.69;;;17.22;100.00
47054;BME280;32811;52.382;5.270;2022-09-13T02:26:04;100998.28;;;17.18;100.00
47054;BME280;32811;52.382;5.270;2022-09-13T02:28:35;101003.59;;;17.14;100.00
47054;BME280;32811;52.382;5.270;2022-09-13T02:31:07;100987.91;;;17.17;100.00
47054;BME280;32811;52.382;5.270;2022-09-13T02:33:49;100998.31;;;17.17;100.00
47054;BME280;32811;52.382;5.270;2022-09-13T02:36:25;100998.41;;;17.12;100.00
47054;BME280;32811;52.382;5.270;2022-09-13T02:38:59;100988.88;;;17.11;100.00
47054;BME280;32811;52.382;5.270;2022-09-13T02:41:36;100988.00;;;17.11;100.00
47054;BME280;32811;52.382;5.270;2022-09-13T02:44:12;100979.34;;;17.10;100.00
47054;BME280;32811;52.382;5.270;2022-09-13T02:46:52;100986.28;;;17.10;100.00
47054;BME280;32811;52.382;5.270;2022-09-13T02:49:48;100990.56;;;17.12;100.00
47054;BME280;32811;52.382;5.270;2022-09-13T02:55:16;100998.41;;;17.12;100.00
47054;BME280;32811;52.382;5.270;2022-09-13T02:57:54;100989.78;;;17.09;100.00
47054;BME280;32811;52.382;5.270;2022-09-13T03:00:25;100978.53;;;17.07;100.00
47054;BME280;32811;52.382;5.270;2022-09-13T03:02:52;100983.75;;;17.07;100.00
47054;BME280;32811;52.382;5.270;2022-09-13T03:05:20;100985.59;;;17.01;100.00
47054;BME280;32811;52.382;5.270;2022-09-13T03:07:47;100986.53;;;16.97;100.00
47054;BME280;32811;52.382;5.270;2022-09-13T03:10:15;100990.94;;;16.94;100.00
47054;BME280;32811;52.382;5.270;2022-09-13T03:16:02;101004.81;;;16.96;100.00
47054;BME280;32811;52.382;5.270;2022-09-13T03:24:19;100997.00;;;16.96;100.00
47054;BME280;32811;52.382;5.270;2022-09-13T03:32:35;100985.06;;;16.84;100.00
47054;BME280;32811;52.382;5.270;2022-09-13T03:40:14;100986.97;;;16.73;100.00
47054;BME280;32811;52.382;5.270;2022-09-13T03:42:47;100980.97;;;16.68;100.00
47054;BME280;32811;52.382;5.270;2022-09-13T03:45:18;100980.25;;;16.61;100.00
47054;BME280;32811;52.382;5.270;2022-09-13T03:47:47;100992.50;;;16.56;100.00
47054;BME280;32811;52.382;5.270;2022-09-13T03:50:18;100990.88;;;16.50;100.00
47054;BME280;32811;52.382;5.270;2022-09-13T03:52:47;100994.34;;;16.49;100.00
47054;BME280;32811;52.382;5.270;2022-09-13T03:55:20;100991.84;;;16.43;100.00
47054;BME280;32811;52.382;5.270;2022-09-13T03:57:47;100997.94;;;16.44;100.00
47054;BME280;32811;52.382;5.270;2022-09-13T04:00:13;100985.06;;;16.34;100.00
47054;BME280;32811;52.382;5.270;2022-09-13T04:02:40;100995.56;;;16.30;100.00
47054;BME280;32811;52.382;5.270;2022-09-13T04:05:07;100995.59;;;16.28;100.00
47054;BME280;32811;52.382;5.270;2022-09-13T04:07:33;101005.09;;;16.29;100.00
47054;BME280;32811;52.382;5.270;2022-09-13T04:10:00;100993.91;;;16.24;100.00
47054;BME280;32811;52.382;5.270;2022-09-13T04:12:26;100993.00;;;16.25;100.00
47054;BME280;32811;52.382;5.270;2022-09-13T04:14:56;100987.03;;;16.18;100.00
47054;BME280;32811;52.382;5.270;2022-09-13T04:17:23;100997.44;;;16.20;100.00
47054;BME280;32811;52.382;5.270;2022-09-13T04:19:49;101012.28;;;16.16;100.00
47054;BME280;32811;52.382;5.270;2022-09-13T04:22:16;100998.44;;;16.13;100.00
47054;BME280;32811;52.382;5.270;2022-09-13T04:24:42;100996.75;;;16.09;100.00
47054;BME280;32811;52.382;5.270;2022-09-13T04:27:09;101005.50;;;16.05;100.00
47054;BME280;32811;52.382;5.270;2022-09-13T04:29:36;101001.22;;;16.01;100.00
47054;BME280;32811;52.382;5.270;2022-09-13T04:32:02;101003.00;;;15.98;100.00
47054;BME280;32811;52.382;5.270;2022-09-13T04:34:29;101003.94;;;15.94;100.00
47054;BME280;32811;52.382;5.270;2022-09-13T04:36:56;101003.03;;;15.95;100.00
47054;BME280;32811;52.382;5.270;2022-09-13T04:39:22;101006.63;;;15.90;100.00
47054;BME280;32811;52.382;5.270;2022-09-13T04:41:50;101005.72;;;15.89;100.00
47054;BME280;32811;52.382;5.270;2022-09-13T04:44:20;101014.44;;;15.88;100.00
47054;BME280;32811;52.382;5.270;2022-09-13T04:46:47;101008.47;;;15.82;100.00
47054;BME280;32811;52.382;5.270;2022-09-13T04:49:15;101000.72;;;15.77;100.00
47054;BME280;32811;52.382;5.270;2022-09-13T04:51:42;101011.94;;;15.81;100.00
47054;BME280;32811;52.382;5.270;2022-09-13T04:54:09;101009.38;;;15.76;100.00
47054;BME280;32811;52.382;5.270;2022-09-13T04:56:41;101012.88;;;15.75;100.00
47054;BME280;32811;52.382;5.270;2022-09-13T04:59:09;101006.00;;;15.71;100.00
47054;BME280;32811;52.382;5.270;2022-09-13T05:01:36;101014.59;;;15.76;100.00
47054;BME280;32811;52.382;5.270;2022-09-13T05:04:05;101008.47;;;15.80;100.00
47054;BME280;32811;52.382;5.270;2022-09-13T05:06:31;101005.91;;;15.79;100.00
47054;BME280;32811;52.382;5.270;2022-09-13T05:08:58;101002.44;;;15.78;100.00
47054;BME280;32811;52.382;5.270;2022-09-13T05:11:26;101022.31;;;15.84;100.00
47054;BME280;32811;52.382;5.270;2022-09-13T05:13:56;101005.88;;;15.80;100.00
47054;BME280;32811;52.382;5.270;2022-09-13T05:16:26;101023.94;;;15.91;100.00
47054;BME280;32811;52.382;5.270;2022-09-13T05:18:53;101023.94;;;15.92;100.00
47054;BME280;32811;52.382;5.270;2022-09-13T05:21:20;101029.91;;;15.97;100.00
47054;BME280;32811;52.382;5.270;2022-09-13T05:23:48;101041.09;;;16.06;100.00
47054;BME280;32811;52.382;5.270;2022-09-13T05:26:15;101044.47;;;16.09;100.00
47054;BME280;32811;52.382;5.270;2022-09-13T05:28:42;101048.75;;;16.15;100.00
47054;BME280;32811;52.382;5.270;2022-09-13T05:31:14;101040.00;;;16.19;100.00
47054;BME280;32811;52.382;5.270;2022-09-13T05:33:42;101051.03;;;16.35;100.00
47054;BME280;32811;52.382;5.270;2022-09-13T05:36:09;101043.94;;;16.45;100.00
47054;BME280;32811;52.382;5.270;2022-09-13T05:38:35;101049.09;;;16.48;100.00
47054;BME280;32811;52.382;5.270;2022-09-13T05:41:03;101041.31;;;16.45;100.00
47054;BME280;32811;52.382;5.270;2022-09-13T05:43:33;101049.06;;;16.49;100.00
47054;BME280;32811;52.382;5.270;2022-09-13T05:46:04;101055.03;;;16.56;100.00
47054;BME280;32811;52.382;5.270;2022-09-13T05:48:33;101056.72;;;16.58;100.00
47054;BME280;32811;52.382;5.270;2022-09-13T05:51:21;101054.88;;;16.65;100.00
47054;BME280;32811;52.382;5.270;2022-09-13T05:53:50;101064.34;;;16.71;100.00
47054;BME280;32811;52.382;5.270;2022-09-13T05:56:21;101065.09;;;16.77;100.00
47054;BME280;32811;52.382;5.270;2022-09-13T05:58:50;101073.63;;;16.87;100.00
47054;BME280;32811;52.382;5.270;2022-09-13T06:01:19;101051.91;;;16.87;100.00
47054;BME280;32811;52.382;5.270;2022-09-13T06:03:47;101068.22;;;16.98;100.00
47054;BME280;32811;52.382;5.270;2022-09-13T06:06:14;101067.19;;;17.07;100.00
47054;BME280;32811;52.382;5.270;2022-09-13T06:08:41;101057.63;;;17.07;100.00
47054;BME280;32811;52.382;5.270;2022-09-13T06:11:10;101061.66;;;17.24;100.00
47054;BME280;32811;52.382;5.270;2022-09-13T06:13:37;101078.78;;;17.37;100.00
47054;BME280;32811;52.382;5.270;2022-09-13T06:16:09;101079.56;;;17.42;100.00
47054;BME280;32811;52.382;5.270;2022-09-13T06:18:36;101070.06;;;17.39;100.00
47054;BME280;32811;52.382;5.270;2022-09-13T06:21:08;101080.31;;;17.47;100.00
47054;BME280;32811;52.382;5.270;2022-09-13T06:23:36;101085.50;;;17.49;100.00
47054;BME280;32811;52.382;5.270;2022-09-13T06:26:08;101072.56;;;17.44;100.00
47054;BME280;32811;52.382;5.270;2022-09-13T06:28:36;101079.44;;;17.48;100.00
47054;BME280;32811;52.382;5.270;2022-09-13T06:33:29;101083.63;;;17.55;100.00
47054;BME280;32811;52.382;5.270;2022-09-13T06:35:59;101084.50;;;17.54;100.00
47054;BME280;32811;52.382;5.270;2022-09-13T06:38:25;101079.28;;;17.56;100.00
47054;BME280;32811;52.382;5.270;2022-09-13T06:41:03;101081.03;;;17.55;100.00
47054;BME280;32811;52.382;5.270;2022-09-13T06:43:30;101077.50;;;17.58;100.00
47054;BME280;32811;52.382;5.270;2022-09-13T06:46:03;101076.53;;;17.62;100.00
47054;BME280;32811;52.382;5.270;2022-09-13T06:48:37;101074.56;;;17.73;100.00
47054;BME280;32811;52.382;5.270;2022-09-13T06:51:09;101075.25;;;17.81;100.00
47054;BME280;32811;52.382;5.270;2022-09-13T06:53:37;101073.34;;;17.91;100.00
47054;BME280;32811;52.382;5.270;2022-09-13T06:56:10;101066.09;;;18.02;100.00
47054;BME280;32811;52.382;5.270;2022-09-13T06:58:37;101070.19;;;18.14;100.00
47054;BME280;32811;52.382;5.270;2022-09-13T07:01:19;101065.75;;;18.18;100.00
47054;BME280;32811;52.382;5.270;2022-09-13T07:03:51;101062.91;;;18.29;100.00
47054;BME280;32811;52.382;5.270;2022-09-13T07:06:20;101061.66;;;18.43;100.00
47054;BME280;32811;52.382;5.270;2022-09-13T07:08:49;101064.91;;;18.53;100.00
47054;BME280;32811;52.382;5.270;2022-09-13T07:11:18;101079.38;;;18.66;100.00
47054;BME280;32811;52.382;5.270;2022-09-13T07:13:48;101077.47;;;18.73;100.00
47054;BME280;32811;52.382;5.270;2022-09-13T07:16:16;101076.50;;;18.77;100.00
47054;BME280;32811;52.382;5.270;2022-09-13T07:18:43;101064.94;;;18.86;100.00
47054;BME280;32811;52.382;5.270;2022-09-13T07:21:11;101060.38;;;18.94;100.00
47054;BME280;32811;52.382;5.270;2022-09-13T07:23:38;101069.72;;;19.04;100.00
47054;BME280;32811;52.382;5.270;2022-09-13T07:26:06;101074.88;;;19.06;100.00
47054;BME280;32811;52.382;5.270;2022-09-13T07:28:35;101078.13;;;19.16;100.00
47054;BME280;32811;52.382;5.270;2022-09-13T07:31:09;101078.97;;;19.16;100.00
47054;BME280;32811;52.382;5.270;2022-09-13T07:33:37;101074.69;;;19.14;100.00
47054;BME280;32811;52.382;5.270;2022-09-13T07:36:05;101073.19;;;19.05;100.00
47054;BME280;32811;52.382;5.270;2022-09-13T07:38:35;101067.88;;;19.06;100.00
47054;BME280;32811;52.382;5.270;2022-09-13T07:41:03;101075.78;;;19.05;100.00
47054;BME280;32811;52.382;5.270;2022-09-13T07:43:32;101074.75;;;19.11;100.00
47054;BME280;32811;52.382;5.270;2022-09-13T07:46:06;101076.63;;;19.38;100.00
47054;BME280;32811;52.382;5.270;2022-09-13T07:48:36;101078.41;;;19.36;100.00
47054;BME280;32811;52.382;5.270;2022-09-13T07:51:04;101090.41;;;19.45;100.00
47054;BME280;32811;52.382;5.270;2022-09-13T07:53:32;101087.53;;;19.53;100.00
47054;BME280;32811;52.382;5.270;2022-09-13T07:56:06;101080.72;;;19.78;100.00
47054;BME280;32811;52.382;5.270;2022-09-13T07:58:34;101090.63;;;19.97;100.00
47054;BME280;32811;52.382;5.270;2022-09-13T08:01:08;101091.78;;;19.88;100.00
47054;BME280;32811;52.382;5.270;2022-09-13T08:03:35;101100.72;;;19.81;100.00
47054;BME280;32811;52.382;5.270;2022-09-13T08:06:04;101110.44;;;19.77;100.00
47054;BME280;32811;52.382;5.270;2022-09-13T08:08:32;101105.31;;;19.73;100.00
47054;BME280;32811;52.382;5.270;2022-09-13T08:10:59;101106.00;;;19.79;100.00
47054;BME280;32811;52.382;5.270;2022-09-13T08:13:27;101103.94;;;19.89;100.00
47054;BME280;32811;52.382;5.270;2022-09-13T08:15:55;101109.19;;;19.89;100.00
47054;BME280;32811;52.382;5.270;2022-09-13T08:18:21;101102.22;;;19.89;100.00
47054;BME280;32811;52.382;5.270;2022-09-13T08:20:48;101110.81;;;19.93;100.00
47054;BME280;32811;52.382;5.270;2022-09-13T08:23:14;101111.34;;;20.04;100.00
47054;BME280;32811;52.382;5.270;2022-09-13T08:25:41;101107.97;;;20.29;100.00
47054;BME280;32811;52.382;5.270;2022-09-13T08:28:09;101117.25;;;20.39;100.00
47054;BME280;32811;52.382;5.270;2022-09-13T08:30:40;101109.44;;;20.38;100.00
47054;BME280;32811;52.382;5.270;2022-09-13T08:33:10;101120.50;;;20.47;100.00
47054;BME280;32811;52.382;5.270;2022-09-13T08:35:37;101122.00;;;20.28;100.00
47054;BME280;32811;52.382;5.270;2022-09-13T08:38:05;101123.09;;;20.21;100.00
47054;BME280;32811;52.382;5.270;2022-09-13T08:40:39;101124.28;;;20.10;100.00
47054;BME280;32811;52.382;5.270;2022-09-13T08:43:19;101124.63;;;20.28;100.00
47054;BME280;32811;52.382;5.270;2022-09-13T08:45:58;101114.16;;;20.26;100.00
47054;BME280;32811;52.382;5.270;2022-09-13T08:48:32;101121.66;;;20.10;100.00
47054;BME280;32811;52.382;5.270;2022-09-13T08:51:03;101114.97;;;20.00;100.00
47054;BME280;32811;52.382;5.270;2022-09-13T08:53:31;101127.38;;;20.23;100.00
47054;BME280;32811;52.382;5.270;2022-09-13T09:06:34;101116.41;;;20.10;100.00
47054;BME280;32811;52.382;5.270;2022-09-13T09:09:05;101112.56;;;19.94;100.00
47054;BME280;32811;52.382;5.270;2022-09-13T09:14:19;101114.59;;;20.41;100.00
47054;BME280;32811;52.382;5.270;2022-09-13T09:16:54;101121.28;;;20.49;100.00
47054;BME280;32811;52.382;5.270;2022-09-13T09:19:31;101121.69;;;20.65;100.00
47054;BME280;32811;52.382;5.270;2022-09-13T09:22:03;101127.22;;;20.83;100.00
47054;BME280;32811;52.382;5.270;2022-09-13T09:24:33;101117.38;;;20.89;100.00
47054;BME280;32811;52.382;5.270;2022-09-13T09:27:13;101128.28;;;20.77;100.00
47054;BME280;32811;52.382;5.270;2022-09-13T09:29:41;101125.72;;;20.76;100.00
47054;BME280;32811;52.382;5.270;2022-09-13T09:35:26;101128.28;;;21.04;100.00
47054;BME280;32811;52.382;5.270;2022-09-13T09:38:36;101122.44;;;21.46;100.00
47054;BME280;32811;52.382;5.270;2022-09-13T09:41:23;101127.94;;;21.13;100.00
47054;BME280;32811;52.382;5.270;2022-09-13T09:46:25;101132.88;;;20.70;100.00
47054;BME280;32811;52.382;5.270;2022-09-13T09:48:55;101134.41;;;20.78;100.00
47054;BME280;32811;52.382;5.270;2022-09-13T09:51:26;101130.66;;;20.85;100.00
47054;BME280;32811;52.382;5.270;2022-09-13T09:53:59;101135.28;;;21.03;100.00
47054;BME280;32811;52.382;5.270;2022-09-13T09:56:30;101124.81;;;21.27;100.00
47054;BME280;32811;52.382;5.270;2022-09-13T09:58:58;101132.66;;;21.28;100.00
47054;BME280;32811;52.382;5.270;2022-09-13T10:01:28;101130.06;;;21.52;100.00
47054;BME280;32811;52.382;5.270;2022-09-13T10:06:39;101130.75;;;21.32;100.00
47054;BME280;32811;52.382;5.270;2022-09-13T10:11:48;101117.28;;;21.43;100.00
47054;BME280;32811;52.382;5.270;2022-09-13T10:14:38;101115.38;;;21.48;100.00
47054;BME280;32811;52.382;5.270;2022-09-13T10:17:28;101113.38;;;21.54;100.00
47054;BME280;32811;52.382;5.270;2022-09-13T10:20:21;101117.13;;;21.22;100.00
47054;BME280;32811;52.382;5.270;2022-09-13T10:23:17;101114.59;;;21.44;100.00
47054;BME280;32811;52.382;5.270;2022-09-13T10:26:08;101115.41;;;21.21;100.00
47054;BME280;32811;52.382;5.270;2022-09-13T10:31:15;101118.19;;;20.65;100.00
47054;BME280;32811;52.382;5.270;2022-09-13T10:36:18;101104.97;;;21.20;100.00
47054;BME280;32811;52.382;5.270;2022-09-13T10:39:12;101114.50;;;21.22;100.00
47054;BME280;32811;52.382;5.270;2022-09-13T10:41:49;101118.22;;;21.17;100.00
47054;BME280;32811;52.382;5.270;2022-09-13T10:44:31;101118.09;;;20.94;100.00
47054;BME280;32811;52.382;5.270;2022-09-13T10:47:01;101116.81;;;20.81;100.00
47054;BME280;32811;52.382;5.270;2022-09-13T10:49:51;101118.84;;;20.71;100.00
47054;BME280;32811;52.382;5.270;2022-09-13T10:52:51;101124.59;;;20.83;100.00
47054;BME280;32811;52.382;5.270;2022-09-13T10:57:44;101123.75;;;21.07;100.00
47054;BME280;32811;52.382;5.270;2022-09-13T11:00:14;101126.97;;;21.41;100.00
47054;BME280;32811;52.382;5.270;2022-09-13T11:05:31;101134.16;;;21.35;99.03
47054;BME280;32811;52.382;5.270;2022-09-13T11:34:10;101104.00;;;21.22;94.53
47054;BME280;32811;52.382;5.270;2022-09-13T11:48:46;101093.09;;;20.58;93.38
47054;BME280;32811;52.382;5.270;2022-09-13T11:54:18;101103.84;;;21.02;91.53
47054;BME280;32811;52.382;5.270;2022-09-13T11:56:53;101095.44;;;21.17;87.85
47054;BME280;32811;52.382;5.270;2022-09-13T12:02:49;101084.47;;;21.29;86.84
47054;BME280;32811;52.382;5.270;2022-09-13T12:05:22;101093.72;;;21.41;82.27
47054;BME280;32811;52.382;5.270;2022-09-13T12:08:01;101090.22;;;21.41;79.34
47054;BME280;32811;52.382;5.270;2022-09-13T12:13:02;101087.84;;;21.33;81.60
47054;BME280;32811;52.382;5.270;2022-09-13T12:15:38;101085.66;;;21.21;83.26
47054;BME280;32811;52.382;5.270;2022-09-13T12:21:03;101080.94;;;21.05;90.31
47054;BME280;32811;52.382;5.270;2022-09-13T12:23:41;101079.06;;;20.85;89.77
47054;BME280;32811;52.382;5.270;2022-09-13T12:26:14;101074.25;;;20.71;84.83
47054;BME280;32811;52.382;5.270;2022-09-13T12:31:42;101088.53;;;20.36;91.99
47054;BME280;32811;52.382;5.270;2022-09-13T12:34:19;101098.75;;;20.44;92.68
47054;BME280;32811;52.382;5.270;2022-09-13T12:36:55;101098.25;;;20.61;88.67
47054;BME280;32811;52.382;5.270;2022-09-13T12:45:18;101097.81;;;20.73;88.92
47054;BME280;32811;52.382;5.270;2022-09-13T12:50:32;101109.41;;;20.92;86.00
47054;BME280;32811;52.382;5.270;2022-09-13T13:01:16;101112.94;;;20.91;84.58
47054;BME280;32811;52.382;5.270;2022-09-13T13:03:55;101102.03;;;21.04;87.59
47054;BME280;32811;52.382;5.270;2022-09-13T13:08:56;101097.34;;;21.12;85.22
47054;BME280;32811;52.382;5.270;2022-09-13T13:11:28;101090.59;;;21.05;87.76
47054;BME280;32811;52.382;5.270;2022-09-13T13:13:59;101084.06;;;20.91;88.98
47054;BME280;32811;52.382;5.270;2022-09-13T13:16:39;101086.00;;;20.86;89.21
47054;BME280;32811;52.382;5.270;2022-09-13T13:19:30;101095.09;;;20.76;88.45
47054;BME280;32811;52.382;5.270;2022-09-13T13:23:01;101098.00;;;20.93;88.31
47054;BME280;32811;52.382;5.270;2022-09-13T13:25:36;101092.53;;;21.00;85.79
47054;BME280;32811;52.382;5.270;2022-09-13T13:33:52;101091.06;;;20.66;93.28
47054;BME280;32811;52.382;5.270;2022-09-13T13:36:25;101089.16;;;20.71;95.81
47054;BME280;32811;52.382;5.270;2022-09-13T13:38:55;101093.22;;;20.80;89.85
47054;BME280;32811;52.382;5.270;2022-09-13T13:46:52;101089.63;;;20.82;92.68
47054;BME280;32811;52.382;5.270;2022-09-13T13:59:49;101107.06;;;20.58;89.50
47054;BME280;32811;52.382;5.270;2022-09-13T14:02:20;101107.75;;;20.37;91.82
47054;BME280;32811;52.382;5.270;2022-09-13T14:21:33;101102.28;;;20.43;92.20
47054;BME280;32811;52.382;5.270;2022-09-13T14:26:48;101089.44;;;20.07;93.90
47054;BME280;32811;52.382;5.270;2022-09-13T14:29:20;101101.09;;;19.98;94.79
47054;BME280;32811;52.382;5.270;2022-09-13T14:31:49;101099.19;;;19.74;95.63
47054;BME280;32811;52.382;5.270;2022-09-13T14:34:28;101083.13;;;19.55;96.70
47054;BME280;32811;52.382;5.270;2022-09-13T14:37:01;101087.41;;;19.57;98.17
47054;BME280;32811;52.382;5.270;2022-09-13T14:39:29;101087.91;;;19.72;97.28
47054;BME280;32811;52.382;5.270;2022-09-13T14:44:35;101094.50;;;19.85;94.11
47054;BME280;32811;52.382;5.270;2022-09-13T14:47:11;101087.34;;;19.90;94.65
47054;BME280;32811;52.382;5.270;2022-09-13T14:49:47;101090.00;;;19.88;93.92
47054;BME280;32811;52.382;5.270;2022-09-13T14:52:28;101100.63;;;19.84;92.77
47054;BME280;32811;52.382;5.270;2022-09-13T14:55:00;101087.81;;;19.75;93.78
47054;BME280;32811;52.382;5.270;2022-09-13T14:57:32;101085.88;;;19.50;95.46
47054;BME280;32811;52.382;5.270;2022-09-13T15:00:04;101099.06;;;19.47;97.86
47054;BME280;32811;52.382;5.270;2022-09-13T15:02:37;101089.34;;;19.50;97.11
47054;BME280;32811;52.382;5.270;2022-09-13T15:05:12;101090.97;;;19.55;95.52
47054;BME280;32811;52.382;5.270;2022-09-13T15:07:40;101095.53;;;19.79;94.70
47054;BME280;32811;52.382;5.270;2022-09-13T15:12:33;101098.53;;;19.65;94.45
47054;BME280;32811;52.382;5.270;2022-09-13T15:20:23;101093.91;;;19.75;93.85
47054;BME280;32811;52.382;5.270;2022-09-13T15:22:50;101092.94;;;19.78;94.94
47054;BME280;32811;52.382;5.270;2022-09-13T15:25:25;101098.00;;;19.84;92.46
47054;BME280;32811;52.382;5.270;2022-09-13T15:27:54;101085.81;;;19.83;93.12
47054;BME280;32811;52.382;5.270;2022-09-13T15:30:30;101093.19;;;19.70;93.06
47054;BME280;32811;52.382;5.270;2022-09-13T15:35:44;101085.16;;;19.45;95.08
47054;BME280;32811;52.382;5.270;2022-09-13T15:38:25;101094.16;;;19.35;96.94
47054;BME280;32811;52.382;5.270;2022-09-13T15:41:13;101087.56;;;19.20;97.28
47054;BME280;32811;52.382;5.270;2022-09-13T15:43:42;101079.91;;;19.14;98.25
47054;BME280;32811;52.382;5.270;2022-09-13T15:46:13;101081.03;;;19.05;99.51
47054;BME280;32811;52.382;5.270;2022-09-13T15:48:44;101086.25;;;19.05;98.73
47054;BME280;32811;52.382;5.270;2022-09-13T15:51:15;101082.81;;;19.03;100.00
47054;BME280;32811;52.382;5.270;2022-09-13T15:53:43;101085.47;;;19.01;98.35
47054;BME280;32811;52.382;5.270;2022-09-13T15:56:21;101076.94;;;18.95;100.00
47054;BME280;32811;52.382;5.270;2022-09-13T15:58:49;101075.25;;;18.92;99.33
47054;BME280;32811;52.382;5.270;2022-09-13T16:01:16;101075.34;;;18.89;100.00
47054;BME280;32811;52.382;5.270;2022-09-13T16:03:43;101076.25;;;18.86;100.00
47054;BME280;32811;52.382;5.270;2022-09-13T16:06:10;101071.84;;;18.88;100.00
47054;BME280;32811;52.382;5.270;2022-09-13T16:08:38;101072.19;;;18.75;98.80
47054;BME280;32811;52.382;5.270;2022-09-13T16:11:05;101079.16;;;18.76;99.05
47054;BME280;32811;52.382;5.270;2022-09-13T16:13:33;101082.63;;;18.78;99.62
47054;BME280;32811;52.382;5.270;2022-09-13T16:16:00;101083.59;;;18.72;98.75
47054;BME280;32811;52.382;5.270;2022-09-13T16:18:27;101080.28;;;18.64;99.32
47054;BME280;32811;52.382;5.270;2022-09-13T16:20:53;101081.28;;;18.60;99.74
47054;BME280;32811;52.382;5.270;2022-09-13T16:23:20;101074.47;;;18.53;100.00
47054;BME280;32811;52.382;5.270;2022-09-13T16:25:49;101076.44;;;18.44;100.00
47054;BME280;32811;52.382;5.270;2022-09-13T16:28:19;101074.13;;;18.32;100.00
47054;BME280;32811;52.382;5.270;2022-09-13T16:30:47;101080.28;;;18.30;100.00
47054;BME280;32811;52.382;5.270;2022-09-13T16:33:13;101075.28;;;18.20;100.00
47054;BME280;32811;52.382;5.270;2022-09-13T16:35:40;101062.44;;;18.10;100.00
47054;BME280;32811;52.382;5.270;2022-09-13T16:38:09;101065.91;;;18.12;100.00
47054;BME280;32811;52.382;5.270;2022-09-13T16:40:38;101073.75;;;18.10;100.00
47054;BME280;32811;52.382;5.270;2022-09-13T16:43:05;101074.81;;;18.03;100.00
47054;BME280;32811;52.382;5.270;2022-09-13T16:45:32;101069.59;;;18.01;100.00
47054;BME280;32811;52.382;5.270;2022-09-13T16:47:59;101073.88;;;18.05;100.00